createdAt,value
2018-09-05T00:00:59.953Z,15.60
2018-09-05T00:03:28.905Z,15.90
2018-09-05T00:05:57.442Z,18.47
2018-09-05T00:08:26.721Z,18.70
2018-09-05T00:10:55.874Z,18.07
2018-09-05T00:13:25.149Z,15.93
2018-09-05T00:15:53.794Z,17.17
2018-09-05T00:18:22.230Z,19.27
2018-09-05T00:20:50.654Z,17.67
2018-09-05T00:23:19.242Z,15.03
2018-09-05T00:25:48.352Z,17.47
2018-09-05T00:28:16.781Z,16.63
2018-09-05T00:30:46.197Z,16.90
2018-09-05T00:33:14.645Z,18.17
2018-09-05T00:35:43.392Z,15.63
2018-09-05T00:38:11.975Z,17.93
2018-09-05T00:40:40.962Z,16.47
2018-09-05T00:43:10.397Z,17.00
2018-09-05T00:45:38.977Z,16.10
2018-09-05T00:48:07.433Z,18.07
2018-09-05T00:50:36.413Z,15.67
2018-09-05T00:53:04.881Z,17.63
2018-09-05T00:55:33.893Z,14.53
2018-09-05T00:58:02.558Z,15.13
2018-09-05T01:00:31.162Z,17.07
2018-09-05T01:02:59.950Z,14.23
2018-09-05T01:05:29.105Z,16.67
2018-09-05T01:07:58.502Z,18.73
2018-09-05T01:10:28.333Z,16.67
2018-09-05T01:12:57.327Z,17.00
2018-09-05T01:15:25.951Z,16.93
2018-09-05T01:17:54.389Z,17.63
2018-09-05T01:20:22.846Z,17.90
2018-09-05T01:22:51.293Z,17.47
2018-09-05T01:25:20.153Z,16.07
2018-09-05T01:27:48.610Z,15.30
2018-09-05T01:30:17.061Z,19.87
2018-09-05T01:32:45.482Z,17.07
2018-09-05T01:35:14.237Z,17.80
2018-09-05T01:37:42.785Z,18.90
2018-09-05T01:40:11.212Z,18.40
2018-09-05T01:42:39.678Z,19.77
2018-09-05T01:45:08.165Z,18.53
2018-09-05T01:47:36.702Z,19.80
2018-09-05T01:50:05.155Z,18.47
2018-09-05T01:52:34.265Z,17.80
2018-09-05T01:55:02.761Z,18.43
2018-09-05T01:57:31.377Z,18.37
2018-09-05T01:59:59.843Z,21.70
2018-09-05T02:02:28.762Z,18.23
2018-09-05T02:04:57.729Z,16.23
2018-09-05T02:07:26.477Z,20.37
2018-09-05T02:09:54.924Z,22.30
2018-09-05T02:12:23.373Z,18.00
2018-09-05T02:14:52.345Z,19.53
2018-09-05T02:17:20.789Z,20.03
2018-09-05T02:19:49.258Z,22.00
2018-09-05T02:22:17.709Z,25.40
2018-09-05T02:24:46.153Z,23.23
2018-09-05T02:27:14.837Z,27.73
2018-09-05T02:29:44.399Z,26.03
2018-09-05T02:32:12.918Z,29.47
2018-09-05T02:34:41.361Z,27.50
2018-09-05T02:37:09.965Z,27.23
2018-09-05T02:39:38.425Z,22.87
2018-09-05T02:42:06.869Z,22.90
2018-09-05T02:44:35.477Z,20.63
2018-09-05T02:47:03.925Z,23.83
2018-09-05T02:49:32.385Z,20.70
2018-09-05T02:52:01.005Z,23.80
2018-09-05T02:54:29.446Z,20.77
2018-09-05T02:56:57.873Z,22.70
2018-09-05T02:59:26.445Z,27.17
2018-09-05T03:01:54.892Z,25.60
2018-09-05T03:04:23.347Z,27.27
2018-09-05T03:06:51.941Z,24.53
2018-09-05T03:09:20.383Z,19.13
2018-09-05T03:11:48.880Z,23.23
2018-09-05T03:14:17.343Z,21.07
2018-09-05T03:16:46.633Z,23.10
2018-09-05T03:19:15.072Z,21.57
2018-09-05T03:21:43.545Z,23.73
2018-09-05T03:24:11.988Z,19.30
2018-09-05T03:26:40.444Z,22.07
2018-09-05T03:29:09.234Z,25.13
2018-09-05T03:31:38.213Z,22.77
2018-09-05T03:34:06.683Z,25.50
2018-09-05T03:36:35.137Z,25.10
2018-09-05T03:39:04.613Z,23.00
2018-09-05T03:41:33.061Z,25.83
2018-09-05T03:44:01.513Z,23.00
2018-09-05T03:46:30.153Z,22.40
2018-09-05T03:48:58.598Z,26.00
2018-09-05T03:51:27.531Z,34.30
2018-09-05T03:53:56.019Z,29.20
2018-09-05T03:56:24.440Z,26.43
2018-09-05T03:58:53.141Z,24.77
2018-09-05T04:01:22.452Z,22.07
2018-09-05T04:03:51.029Z,25.80
2018-09-05T04:06:20.532Z,23.63
2018-09-05T04:08:50.008Z,31.73
2018-09-05T04:11:18.484Z,37.07
2018-09-05T04:13:47.138Z,33.03
2018-09-05T04:16:15.564Z,31.47
2018-09-05T04:18:44.157Z,23.70
2018-09-05T04:21:12.623Z,39.70
2018-09-05T04:23:48.295Z,27.07
2018-09-05T04:26:18.089Z,31.07
2018-09-05T04:28:46.557Z,35.87
2018-09-05T04:31:15.720Z,43.87
2018-09-05T04:33:46.411Z,84.10
2018-09-05T04:36:15.553Z,35.70
2018-09-05T04:38:44.437Z,46.27
2018-09-05T04:41:13.060Z,26.13
2018-09-05T04:43:41.629Z,29.27
2018-09-05T04:46:11.010Z,24.93
2018-09-05T04:48:40.374Z,32.93
2018-09-05T04:51:08.813Z,39.40
2018-09-05T04:53:37.264Z,27.00
2018-09-05T04:56:06.106Z,26.93
2018-09-05T04:58:34.593Z,19.00
2018-09-05T05:01:03.033Z,19.17
2018-09-05T05:03:32.173Z,20.40
2018-09-05T05:06:01.414Z,18.27
2018-09-05T05:08:29.863Z,20.60
2018-09-05T05:10:58.387Z,16.57
2018-09-05T05:13:27.030Z,18.97
2018-09-05T05:15:55.465Z,17.47
2018-09-05T05:18:24.250Z,15.67
2018-09-05T05:20:53.434Z,18.57
2018-09-05T05:23:21.886Z,20.43
2018-09-05T05:25:50.487Z,16.20
2018-09-05T05:28:18.981Z,19.73
2018-09-05T05:30:47.516Z,19.57
2018-09-05T05:33:16.717Z,19.77
2018-09-05T05:35:45.641Z,17.33
2018-09-05T05:38:14.087Z,17.73
2018-09-05T05:40:43.264Z,22.83
2018-09-05T05:43:11.749Z,18.50
2018-09-05T05:45:40.210Z,20.53
2018-09-05T05:48:08.757Z,20.83
2018-09-05T05:50:37.181Z,21.53
2018-09-05T05:53:05.753Z,20.27
2018-09-05T05:55:34.333Z,18.30
2018-09-05T05:58:02.761Z,19.77
2018-09-05T06:00:31.224Z,23.73
2018-09-05T06:02:59.767Z,20.40
2018-09-05T06:05:28.206Z,20.87
2018-09-05T06:07:56.921Z,19.50
2018-09-05T06:10:27.971Z,21.20
2018-09-05T06:12:58.889Z,20.63
2018-09-05T06:15:28.205Z,19.87
2018-09-05T06:17:56.890Z,19.77
2018-09-05T06:20:25.553Z,17.17
2018-09-05T06:22:54.722Z,15.47
2018-09-05T06:25:23.163Z,15.50
2018-09-05T06:27:51.687Z,17.30
2018-09-05T06:30:20.264Z,15.77
2018-09-05T06:32:48.973Z,19.27
2018-09-05T06:35:18.210Z,17.93
2018-09-05T06:37:46.751Z,16.13
2018-09-05T06:40:15.277Z,18.10
2018-09-05T06:42:45.625Z,17.90
2018-09-05T06:45:14.712Z,15.53
2018-09-05T06:47:43.173Z,15.67
2018-09-05T06:50:11.606Z,12.73
2018-09-05T06:52:40.069Z,11.77
2018-09-05T06:55:08.562Z,11.10
2018-09-05T06:57:38.637Z,9.27
2018-09-05T07:00:10.125Z,13.50
2018-09-05T07:02:39.368Z,10.05
2018-09-05T07:05:08.018Z,12.70
2018-09-05T07:07:36.521Z,11.22
2018-09-05T07:10:05.044Z,9.90
2018-09-05T07:12:33.757Z,10.50
2018-09-05T07:15:02.209Z,8.05
2018-09-05T07:17:30.634Z,7.10
2018-09-05T07:19:59.170Z,7.05
2018-09-05T07:22:28.189Z,6.50
2018-09-05T07:24:56.919Z,6.72
2018-09-05T07:27:25.363Z,6.53
2018-09-05T07:29:53.844Z,6.65
2018-09-05T07:32:22.273Z,8.40
2018-09-05T07:34:50.725Z,6.55
2018-09-05T07:37:19.982Z,6.00
2018-09-05T07:39:48.642Z,6.47
2018-09-05T07:42:17.188Z,5.80
2018-09-05T07:44:45.789Z,6.83
2018-09-05T07:47:14.213Z,7.08
2018-09-05T07:49:42.736Z,7.55
2018-09-05T07:52:11.175Z,5.87
2018-09-05T07:54:39.862Z,6.42
2018-09-05T07:57:08.366Z,5.50
2018-09-05T07:59:36.821Z,4.78
2018-09-05T08:02:05.277Z,6.35
2018-09-05T08:04:33.743Z,5.10
2018-09-05T08:07:02.310Z,6.25
2018-09-05T08:09:30.728Z,5.28
2018-09-05T08:11:59.205Z,4.92
2018-09-05T08:14:27.642Z,4.97
2018-09-05T08:16:56.274Z,5.10
2018-09-05T08:19:24.713Z,6.83
2018-09-05T08:21:53.173Z,4.80
2018-09-05T08:24:22.024Z,4.62
2018-09-05T08:26:51.249Z,5.05
2018-09-05T08:29:19.907Z,4.90
2018-09-05T08:31:48.234Z,4.25
2018-09-05T08:34:18.161Z,4.25
2018-09-05T08:36:48.120Z,4.33
2018-09-05T08:39:16.492Z,5.35
2018-09-05T08:41:45.029Z,6.33
2018-09-05T08:44:13.698Z,3.90
2018-09-05T08:46:42.057Z,4.33
2018-09-05T08:49:10.485Z,4.37
2018-09-05T08:51:39.861Z,4.58
2018-09-05T08:54:08.290Z,3.92
2018-09-05T08:56:36.721Z,4.17
2018-09-05T08:59:05.210Z,4.15
2018-09-05T09:01:34.218Z,4.30
2018-09-05T09:04:37.088Z,5.70
2018-09-05T09:07:06.913Z,4.97
2018-09-05T09:09:35.346Z,4.10
2018-09-05T09:12:03.897Z,4.87
2018-09-05T09:14:33.341Z,3.85
2018-09-05T09:17:01.841Z,4.83
2018-09-05T09:19:30.881Z,4.05
2018-09-05T09:21:59.813Z,4.83
2018-09-05T09:24:29.297Z,4.65
2018-09-05T09:26:57.977Z,3.67
2018-09-05T09:29:26.638Z,5.10
2018-09-05T09:31:55.124Z,3.92
2018-09-05T09:34:23.569Z,4.10
2018-09-05T09:36:51.991Z,3.77
2018-09-05T09:39:20.570Z,4.72
2018-09-05T09:41:49.351Z,5.20
2018-09-05T09:44:17.979Z,5.53
2018-09-05T09:46:46.610Z,4.40
2018-09-05T09:49:15.301Z,4.60
2018-09-05T09:51:43.742Z,4.00
2018-09-05T09:54:12.173Z,4.00
2018-09-05T09:56:40.689Z,4.03
2018-09-05T09:59:09.134Z,3.95
2018-09-05T10:01:43.269Z,3.95
2018-09-05T10:04:16.940Z,3.77
2018-09-05T10:06:50.882Z,3.45
2018-09-05T10:09:24.450Z,4.20
2018-09-05T10:14:01.541Z,3.50
2018-09-05T10:17:36.103Z,3.70
2018-09-05T10:20:05.925Z,4.20
2018-09-05T10:22:35.193Z,3.87
2018-09-05T10:25:04.485Z,3.87
2018-09-05T10:27:33.677Z,5.87
2018-09-05T10:30:02.137Z,4.10
2018-09-05T10:32:30.579Z,3.15
2018-09-05T10:34:59.610Z,3.47
2018-09-05T10:37:29.341Z,4.72
2018-09-05T10:39:58.464Z,3.80
2018-09-05T10:42:27.049Z,3.95
2018-09-05T10:44:55.518Z,4.62
2018-09-05T10:47:24.190Z,4.67
2018-09-05T10:49:52.925Z,4.33
2018-09-05T10:52:21.345Z,3.22
2018-09-05T10:54:50.482Z,5.53
2018-09-05T10:57:19.057Z,4.37
2018-09-05T10:59:47.470Z,4.92
2018-09-05T11:02:16.313Z,3.02
2018-09-05T11:04:44.869Z,4.60
2018-09-05T11:07:13.389Z,4.62
2018-09-05T11:09:42.008Z,4.83
2018-09-05T11:12:10.673Z,3.77
2018-09-05T11:14:40.697Z,4.40
2018-09-05T11:17:10.157Z,3.08
2018-09-05T11:19:39.376Z,4.40
2018-09-05T11:22:08.101Z,3.58
2018-09-05T11:24:37.073Z,3.35
2018-09-05T11:27:06.308Z,3.40
2018-09-05T11:29:35.317Z,6.15
2018-09-05T11:32:03.909Z,3.10
2018-09-05T11:34:32.835Z,3.72
2018-09-05T11:37:02.205Z,4.83
2018-09-05T11:39:31.516Z,4.50
2018-09-05T11:42:00.883Z,4.12
2018-09-05T11:44:29.374Z,3.58
2018-09-05T11:46:57.885Z,5.60
2018-09-05T11:49:26.468Z,5.70
2018-09-05T11:51:54.891Z,4.53
2018-09-05T11:54:23.619Z,4.47
2018-09-05T11:56:52.658Z,5.70
2018-09-05T11:59:21.176Z,3.35
2018-09-05T12:01:50.543Z,4.08
2018-09-05T12:04:20.485Z,3.20
2018-09-05T12:06:48.949Z,5.10
2018-09-05T12:09:17.770Z,3.72
2018-09-05T12:11:46.354Z,4.28
2018-09-05T12:14:15.093Z,3.95
2018-09-05T12:16:44.198Z,4.25
2018-09-05T12:19:12.663Z,4.10
2018-09-05T12:21:42.061Z,3.42
2018-09-05T12:24:10.897Z,3.20
2018-09-05T12:26:39.346Z,5.95
2018-09-05T12:29:10.464Z,4.35
2018-09-05T12:31:39.650Z,3.17
2018-09-05T12:34:08.077Z,4.83
2018-09-05T12:36:36.608Z,5.62
2018-09-05T12:39:09.013Z,4.78
2018-09-05T12:41:37.439Z,5.92
2018-09-05T12:44:07.105Z,3.45
2018-09-05T12:46:35.756Z,5.42
2018-09-05T12:49:04.177Z,3.72
2018-09-05T12:51:32.656Z,4.28
2018-09-05T12:54:01.529Z,5.28
2018-09-05T12:56:30.375Z,5.37
2018-09-05T12:58:59.257Z,4.25
2018-09-05T13:01:27.866Z,3.20
2018-09-05T13:03:56.417Z,3.45
2018-09-05T13:06:24.890Z,3.20
2018-09-05T13:08:53.577Z,2.83
2018-09-05T13:11:22.384Z,3.27
2018-09-05T13:13:50.818Z,3.17
2018-09-05T13:16:20.293Z,3.95
2018-09-05T13:18:48.770Z,3.70
2018-09-05T13:21:17.215Z,4.37
2018-09-05T13:23:46.185Z,4.35
2018-09-05T13:26:14.617Z,3.33
2018-09-05T13:28:43.599Z,3.10
2018-09-05T13:31:13.707Z,4.42
2018-09-05T13:33:42.299Z,4.53
2018-09-05T13:36:10.814Z,4.35
2018-09-05T13:38:40.378Z,4.00
2018-09-05T13:41:08.870Z,3.27
2018-09-05T13:43:37.363Z,7.22
2018-09-05T13:46:05.974Z,4.95
2018-09-05T13:48:34.386Z,4.83
2018-09-05T13:51:02.909Z,3.75
2018-09-05T13:53:31.478Z,6.35
2018-09-05T13:56:00.565Z,4.17
2018-09-05T13:58:29.572Z,4.30
2018-09-05T14:00:58.206Z,3.50
2018-09-05T14:03:26.977Z,5.80
2018-09-05T14:05:55.401Z,4.28
2018-09-05T14:08:24.058Z,3.90
2018-09-05T14:10:52.497Z,5.22
2018-09-05T14:13:22.046Z,7.47
2018-09-05T14:15:50.893Z,4.03
2018-09-05T14:18:19.655Z,5.22
2018-09-05T14:20:48.073Z,5.40
2018-09-05T14:23:16.997Z,3.90
2018-09-05T14:25:45.425Z,2.55
2018-09-05T14:28:13.845Z,4.00
2018-09-05T14:30:42.789Z,7.92
2018-09-05T14:33:11.248Z,4.75
2018-09-05T14:35:40.065Z,4.85
2018-09-05T14:38:09.312Z,3.60
2018-09-05T14:40:38.025Z,5.08
2018-09-05T14:43:07.256Z,3.58
2018-09-05T14:45:36.018Z,3.87
2018-09-05T14:48:04.576Z,5.80
2018-09-05T14:50:33.062Z,3.47
2018-09-05T14:53:01.593Z,3.95
2018-09-05T14:55:31.053Z,2.87
2018-09-05T14:57:59.993Z,3.83
2018-09-05T15:00:29.013Z,5.25
2018-09-05T15:02:57.525Z,5.05
2018-09-05T15:05:25.966Z,5.83
2018-09-05T15:07:54.818Z,4.10
2018-09-05T15:10:23.813Z,5.42
2018-09-05T15:12:53.834Z,3.58
2018-09-05T15:15:23.340Z,2.95
2018-09-05T15:17:51.815Z,3.25
2018-09-05T15:20:20.689Z,3.22
2018-09-05T15:22:50.102Z,3.35
2018-09-05T15:25:18.592Z,3.42
2018-09-05T15:27:47.359Z,3.25
2018-09-05T15:30:15.897Z,3.92
2018-09-05T15:32:44.318Z,4.17
2018-09-05T15:35:12.754Z,4.37
2018-09-05T15:37:42.603Z,3.50
2018-09-05T15:40:11.043Z,4.20
2018-09-05T15:42:39.488Z,4.37
2018-09-05T15:45:08.193Z,3.47
2018-09-05T15:47:36.618Z,3.42
2018-09-05T15:50:05.282Z,3.17
2018-09-05T15:52:33.818Z,4.97
2018-09-05T15:55:02.241Z,3.98
2018-09-05T15:57:31.636Z,7.08
2018-09-05T16:00:02.591Z,4.35
2018-09-05T16:02:31.747Z,3.25
2018-09-05T16:05:01.173Z,3.75
2018-09-05T16:07:31.369Z,7.00
2018-09-05T16:09:59.829Z,5.15
2018-09-05T16:12:28.266Z,4.58
2018-09-05T16:14:56.817Z,4.53
2018-09-05T16:17:25.772Z,3.90
2018-09-05T16:19:54.305Z,3.92
2018-09-05T16:22:23.090Z,4.87
2018-09-05T16:24:51.531Z,3.67
2018-09-05T16:27:20.909Z,6.45
2018-09-05T16:29:49.486Z,3.60
2018-09-05T16:32:17.914Z,3.92
2018-09-05T16:34:46.373Z,4.58
2018-09-05T16:37:15.033Z,5.67
2018-09-05T16:39:43.627Z,4.37
2018-09-05T16:42:12.066Z,4.67
2018-09-05T16:44:41.006Z,3.92
2018-09-05T16:47:09.430Z,5.72
2018-09-05T16:49:38.866Z,4.12
2018-09-05T16:52:07.973Z,4.58
2018-09-05T16:54:36.414Z,4.62
2018-09-05T16:57:04.994Z,4.62
2018-09-05T16:59:33.782Z,4.60
2018-09-05T17:02:02.374Z,5.62
2018-09-05T17:04:30.810Z,7.05
2018-09-05T17:06:59.345Z,4.25
2018-09-05T17:09:27.821Z,5.60
2018-09-05T17:11:56.256Z,4.03
2018-09-05T17:14:25.158Z,5.08
2018-09-05T17:16:53.585Z,4.70
2018-09-05T17:19:22.082Z,4.15
2018-09-05T17:21:50.905Z,5.15
2018-09-05T17:24:19.389Z,5.45
2018-09-05T17:26:47.846Z,4.22
2018-09-05T17:29:16.458Z,9.33
2018-09-05T17:31:44.892Z,5.35
2018-09-05T17:34:13.562Z,5.25
2018-09-05T17:36:43.021Z,4.85
2018-09-05T17:39:12.285Z,6.20
2018-09-05T17:41:41.535Z,4.15
2018-09-05T17:44:10.659Z,4.60
2018-09-05T17:46:39.137Z,4.50
2018-09-05T17:49:08.361Z,4.33
2018-09-05T17:51:37.349Z,6.03
2018-09-05T17:54:06.126Z,4.03
2018-09-05T17:56:34.896Z,4.28
2018-09-05T17:59:03.617Z,8.28
2018-09-05T18:01:32.122Z,4.53
2018-09-05T18:04:00.959Z,4.05
2018-09-05T18:06:30.109Z,6.12
2018-09-05T18:08:58.880Z,4.28
2018-09-05T18:11:27.344Z,4.28
2018-09-05T18:13:55.859Z,3.92
2018-09-05T18:16:24.318Z,3.50
2018-09-05T18:18:52.862Z,5.92
2018-09-05T18:21:21.548Z,4.65
2018-09-05T18:23:50.280Z,4.72
2018-09-05T18:26:19.326Z,5.50
2018-09-05T18:28:47.913Z,3.95
2018-09-05T18:31:16.390Z,5.28
2018-09-05T18:33:44.896Z,5.45
2018-09-05T18:36:13.371Z,6.25
2018-09-05T18:38:41.794Z,6.12
2018-09-05T18:41:10.260Z,4.22
2018-09-05T18:43:38.881Z,4.87
2018-09-05T18:46:07.427Z,4.55
2018-09-05T18:48:36.004Z,6.25
2018-09-05T18:51:04.873Z,5.22
2018-09-05T18:53:33.293Z,4.95
2018-09-05T18:56:02.005Z,4.33
2018-09-05T18:58:30.517Z,7.22
2018-09-05T19:00:59.492Z,4.97
2018-09-05T19:03:28.204Z,7.85
2018-09-05T19:05:56.722Z,5.00
2018-09-05T19:08:25.227Z,6.08
2018-09-05T19:10:53.737Z,6.33
2018-09-05T19:13:22.381Z,8.28
2018-09-05T19:15:50.834Z,4.80
2018-09-05T19:18:20.343Z,6.35
2018-09-05T19:20:49.005Z,6.05
2018-09-05T19:23:17.484Z,4.83
2018-09-05T19:25:45.997Z,6.75
2018-09-05T19:28:14.550Z,4.87
2018-09-05T19:30:42.990Z,5.37
2018-09-05T19:33:11.722Z,6.37
2018-09-05T19:35:40.560Z,5.35
2018-09-05T19:38:08.994Z,5.20
2018-09-05T19:40:37.462Z,5.10
2018-09-05T19:43:06.750Z,4.55
2018-09-05T19:45:36.477Z,5.78
2018-09-05T19:48:05.727Z,4.72
2018-09-05T19:50:34.645Z,5.30
2018-09-05T19:53:03.087Z,5.03
2018-09-05T19:55:31.625Z,6.23
2018-09-05T19:58:00.647Z,6.70
2018-09-05T20:00:29.895Z,5.25
2018-09-05T20:03:00.301Z,4.30
2018-09-05T20:05:29.123Z,6.08
2018-09-05T20:07:57.666Z,5.58
2018-09-05T20:10:26.246Z,6.15
2018-09-05T20:12:55.035Z,4.60
2018-09-05T20:15:23.517Z,4.90
2018-09-05T20:17:53.516Z,5.03
2018-09-05T20:20:22.450Z,4.87
2018-09-05T20:22:50.926Z,5.72
2018-09-05T20:25:19.385Z,15.83
2018-09-05T20:27:47.899Z,6.83
2018-09-05T20:30:16.515Z,7.33
2018-09-05T20:32:44.987Z,8.35
2018-09-05T20:35:13.516Z,5.27
2018-09-05T20:37:41.941Z,7.00
2018-09-05T20:40:10.474Z,5.13
2018-09-05T20:42:39.310Z,5.93
2018-09-05T20:45:08.298Z,7.50
2018-09-05T20:47:37.037Z,7.57
2018-09-05T20:50:05.602Z,4.50
2018-09-05T20:52:34.033Z,5.85
2018-09-05T20:55:02.637Z,4.97
2018-09-05T20:57:31.926Z,6.03
2018-09-05T21:00:01.300Z,5.17
2018-09-05T21:02:30.322Z,4.93
2018-09-05T21:04:59.262Z,7.07
2018-09-05T21:07:28.260Z,4.70
2018-09-05T21:09:56.874Z,5.63
2018-09-05T21:12:25.500Z,5.47
2018-09-05T21:14:53.922Z,5.10
2018-09-05T21:17:22.377Z,7.17
2018-09-05T21:19:51.129Z,5.80
2018-09-05T21:22:19.785Z,7.13
2018-09-05T21:24:48.641Z,7.43
2018-09-05T21:27:17.229Z,6.23
2018-09-05T21:29:46.485Z,6.90
2018-09-05T21:32:14.958Z,5.80
2018-09-05T21:34:43.557Z,8.47
2018-09-05T21:37:11.970Z,7.47
2018-09-05T21:39:40.430Z,8.07
2018-09-05T21:42:09.039Z,8.27
2018-09-05T21:44:37.462Z,7.67
2018-09-05T21:47:06.077Z,5.87
2018-09-05T21:49:35.042Z,7.20
2018-09-05T21:52:03.542Z,7.07
2018-09-05T21:54:32.400Z,8.40
2018-09-05T21:57:00.898Z,6.90
2018-09-05T21:59:30.352Z,9.37
2018-09-05T22:01:59.353Z,7.83
2018-09-05T22:04:27.865Z,8.57
2018-09-05T22:06:56.329Z,6.80
2018-09-05T22:09:24.943Z,8.30
2018-09-05T22:11:53.712Z,9.10
2018-09-05T22:14:22.163Z,9.50
2018-09-05T22:16:51.795Z,8.93
2018-09-05T22:19:21.517Z,8.07
2018-09-05T22:21:49.987Z,6.70
2018-09-05T22:24:18.457Z,7.80
2018-09-05T22:26:47.185Z,8.03
2018-09-05T22:29:15.633Z,8.83
2018-09-05T22:31:44.486Z,7.93
2018-09-05T22:34:13.009Z,7.13
2018-09-05T22:36:41.442Z,7.43
2018-09-05T22:39:11.120Z,6.50
2018-09-05T22:41:39.890Z,8.20
2018-09-05T22:44:19.570Z,7.53
2018-09-05T22:46:59.381Z,7.33
2018-09-05T22:52:13.720Z,7.10
2018-09-05T22:56:59.067Z,6.43
2018-09-05T23:00:39.066Z,7.67
2018-09-05T23:03:23.814Z,6.97
2018-09-05T23:06:03.621Z,7.33
2018-09-05T23:08:40.512Z,8.50
2018-09-05T23:11:20.839Z,7.30
2018-09-05T23:14:31.986Z,8.57
2018-09-05T23:19:28.977Z,8.03
2018-09-05T23:21:57.892Z,7.73
2018-09-05T23:24:26.394Z,8.23
2018-09-05T23:26:55.273Z,7.40
2018-09-05T23:29:23.721Z,7.50
2018-09-05T23:31:53.211Z,6.47
2018-09-05T23:34:22.885Z,7.00
2018-09-05T23:36:51.320Z,10.03
2018-09-05T23:39:19.793Z,7.70
2018-09-05T23:41:48.673Z,10.87
2018-09-05T23:44:17.518Z,9.47
2018-09-05T23:46:45.941Z,7.60
2018-09-05T23:49:15.309Z,8.60
2018-09-05T23:51:43.888Z,9.23
2018-09-05T23:54:12.841Z,9.17
2018-09-05T23:56:42.425Z,7.37
2018-09-05T23:59:11.184Z,6.83
